sensor_id;sensor_type;location;lat;lon;timestamp;P1;durP1;ratioP1;P2;durP2;ratioP2
23676;SDS011;31493;49.058;12.190;2023-03-23T00:00:59;7.85;;;3.28;;
23676;SDS011;31493;49.058;12.190;2023-03-23T00:03:27;4.97;;;3.40;;
23676;SDS011;31493;49.058;12.190;2023-03-23T00:05:57;7.50;;;3.08;;
23676;SDS011;31493;49.058;12.190;2023-03-23T00:08:30;7.03;;;3.30;;
23676;SDS011;31493;49.058;12.190;2023-03-23T00:10:59;6.32;;;3.17;;
23676;SDS011;31493;49.058;12.190;2023-03-23T00:13:27;4.72;;;2.92;;
23676;SDS011;31493;49.058;12.190;2023-03-23T00:15:55;5.05;;;3.05;;
23676;SDS011;31493;49.058;12.190;2023-03-23T00:18:23;4.68;;;2.92;;
23676;SDS011;31493;49.058;12.190;2023-03-23T00:20:51;7.90;;;2.95;;
23676;SDS011;31493;49.058;12.190;2023-03-23T00:23:21;6.78;;;3.22;;
23676;SDS011;31493;49.058;12.190;2023-03-23T00:25:51;6.38;;;2.50;;
23676;SDS011;31493;49.058;12.190;2023-03-23T00:28:24;6.95;;;3.05;;
23676;SDS011;31493;49.058;12.190;2023-03-23T00:30:55;4.50;;;2.85;;
23676;SDS011;31493;49.058;12.190;2023-03-23T00:33:23;5.63;;;3.22;;
23676;SDS011;31493;49.058;12.190;2023-03-23T00:35:51;6.75;;;3.38;;
23676;SDS011;31493;49.058;12.190;2023-03-23T00:38:20;9.10;;;3.60;;
23676;SDS011;31493;49.058;12.190;2023-03-23T00:40:47;6.05;;;2.92;;
23676;SDS011;31493;49.058;12.190;2023-03-23T00:43:14;4.57;;;2.85;;
23676;SDS011;31493;49.058;12.190;2023-03-23T00:45:43;11.32;;;3.28;;
23676;SDS011;31493;49.058;12.190;2023-03-23T00:48:15;5.30;;;3.38;;
23676;SDS011;31493;49.058;12.190;2023-03-23T00:50:42;4.65;;;3.05;;
23676;SDS011;31493;49.058;12.190;2023-03-23T00:53:09;6.65;;;3.53;;
23676;SDS011;31493;49.058;12.190;2023-03-23T00:55:36;7.68;;;3.17;;
23676;SDS011;31493;49.058;12.190;2023-03-23T00:58:03;5.10;;;3.00;;
23676;SDS011;31493;49.058;12.190;2023-03-23T01:00:30;4.78;;;3.00;;
23676;SDS011;31493;49.058;12.190;2023-03-23T01:02:58;5.80;;;3.10;;
23676;SDS011;31493;49.058;12.190;2023-03-23T01:05:25;4.70;;;2.80;;
23676;SDS011;31493;49.058;12.190;2023-03-23T01:07:57;5.10;;;2.92;;
23676;SDS011;31493;49.058;12.190;2023-03-23T01:10:25;3.97;;;2.90;;
23676;SDS011;31493;49.058;12.190;2023-03-23T01:12:53;3.88;;;2.60;;
23676;SDS011;31493;49.058;12.190;2023-03-23T01:15:21;5.53;;;2.75;;
23676;SDS011;31493;49.058;12.190;2023-03-23T01:17:48;8.25;;;2.92;;
23676;SDS011;31493;49.058;12.190;2023-03-23T01:20:16;4.38;;;2.83;;
23676;SDS011;31493;49.058;12.190;2023-03-23T01:22:44;4.68;;;2.60;;
23676;SDS011;31493;49.058;12.190;2023-03-23T01:25:11;4.10;;;2.85;;
23676;SDS011;31493;49.058;12.190;2023-03-23T01:27:39;7.38;;;2.90;;
23676;SDS011;31493;49.058;12.190;2023-03-23T01:30:07;6.18;;;2.92;;
23676;SDS011;31493;49.058;12.190;2023-03-23T01:32:37;8.70;;;3.13;;
23676;SDS011;31493;49.058;12.190;2023-03-23T01:35:05;7.93;;;3.17;;
23676;SDS011;31493;49.058;12.190;2023-03-23T01:37:33;4.53;;;2.80;;
23676;SDS011;31493;49.058;12.190;2023-03-23T01:40:01;4.28;;;2.75;;
23676;SDS011;31493;49.058;12.190;2023-03-23T01:42:30;10.63;;;2.83;;
23676;SDS011;31493;49.058;12.190;2023-03-23T01:45:17;5.40;;;2.80;;
23676;SDS011;31493;49.058;12.190;2023-03-23T01:47:51;4.70;;;3.05;;
23676;SDS011;31493;49.058;12.190;2023-03-23T01:50:22;5.85;;;2.95;;
23676;SDS011;31493;49.058;12.190;2023-03-23T01:52:53;5.57;;;3.00;;
23676;SDS011;31493;49.058;12.190;2023-03-23T01:55:24;4.28;;;2.90;;
23676;SDS011;31493;49.058;12.190;2023-03-23T01:57:54;7.25;;;2.67;;
23676;SDS011;31493;49.058;12.190;2023-03-23T02:00:23;5.32;;;2.88;;
23676;SDS011;31493;49.058;12.190;2023-03-23T02:05:21;5.22;;;3.35;;
23676;SDS011;31493;49.058;12.190;2023-03-23T02:07:55;5.43;;;3.10;;
23676;SDS011;31493;49.058;12.190;2023-03-23T02:10:29;4.65;;;2.55;;
23676;SDS011;31493;49.058;12.190;2023-03-23T02:15:25;5.03;;;2.80;;
23676;SDS011;31493;49.058;12.190;2023-03-23T02:17:56;4.32;;;2.88;;
23676;SDS011;31493;49.058;12.190;2023-03-23T02:20:36;6.22;;;2.72;;
23676;SDS011;31493;49.058;12.190;2023-03-23T02:23:28;5.07;;;3.00;;
23676;SDS011;31493;49.058;12.190;2023-03-23T02:26:25;5.18;;;3.53;;
23676;SDS011;31493;49.058;12.190;2023-03-23T02:29:22;6.63;;;3.40;;
23676;SDS011;31493;49.058;12.190;2023-03-23T02:32:12;10.35;;;3.53;;
23676;SDS011;31493;49.058;12.190;2023-03-23T02:34:57;8.43;;;3.17;;
23676;SDS011;31493;49.058;12.190;2023-03-23T02:37:29;5.22;;;3.25;;
23676;SDS011;31493;49.058;12.190;2023-03-23T02:40:00;4.47;;;2.90;;
23676;SDS011;31493;49.058;12.190;2023-03-23T02:42:34;6.68;;;3.83;;
23676;SDS011;31493;49.058;12.190;2023-03-23T02:45:05;5.32;;;3.50;;
23676;SDS011;31493;49.058;12.190;2023-03-23T02:47:35;4.75;;;3.30;;
23676;SDS011;31493;49.058;12.190;2023-03-23T02:50:07;5.93;;;3.30;;
23676;SDS011;31493;49.058;12.190;2023-03-23T02:52:37;8.10;;;3.17;;
23676;SDS011;31493;49.058;12.190;2023-03-23T02:55:07;4.30;;;3.20;;
23676;SDS011;31493;49.058;12.190;2023-03-23T02:57:36;5.05;;;3.20;;
23676;SDS011;31493;49.058;12.190;2023-03-23T03:00:05;8.98;;;3.60;;
23676;SDS011;31493;49.058;12.190;2023-03-23T03:02:36;5.40;;;2.90;;
23676;SDS011;31493;49.058;12.190;2023-03-23T03:05:09;5.35;;;3.08;;
23676;SDS011;31493;49.058;12.190;2023-03-23T03:07:49;6.93;;;3.15;;
23676;SDS011;31493;49.058;12.190;2023-03-23T03:10:25;7.50;;;3.28;;
23676;SDS011;31493;49.058;12.190;2023-03-23T03:12:59;4.68;;;3.08;;
23676;SDS011;31493;49.058;12.190;2023-03-23T03:15:33;6.65;;;3.15;;
23676;SDS011;31493;49.058;12.190;2023-03-23T03:18:06;4.45;;;3.17;;
23676;SDS011;31493;49.058;12.190;2023-03-23T03:20:40;5.50;;;3.20;;
23676;SDS011;31493;49.058;12.190;2023-03-23T03:23:11;3.63;;;2.70;;
23676;SDS011;31493;49.058;12.190;2023-03-23T03:25:41;5.15;;;3.00;;
23676;SDS011;31493;49.058;12.190;2023-03-23T03:28:14;4.05;;;3.00;;
23676;SDS011;31493;49.058;12.190;2023-03-23T03:30:47;5.10;;;3.17;;
23676;SDS011;31493;49.058;12.190;2023-03-23T03:33:19;5.82;;;3.22;;
23676;SDS011;31493;49.058;12.190;2023-03-23T03:35:52;5.32;;;3.40;;
23676;SDS011;31493;49.058;12.190;2023-03-23T03:38:21;4.53;;;2.83;;
23676;SDS011;31493;49.058;12.190;2023-03-23T03:40:48;5.70;;;2.65;;
23676;SDS011;31493;49.058;12.190;2023-03-23T03:43:15;5.18;;;2.78;;
23676;SDS011;31493;49.058;12.190;2023-03-23T03:45:43;7.05;;;3.40;;
23676;SDS011;31493;49.058;12.190;2023-03-23T03:48:10;5.30;;;2.95;;
23676;SDS011;31493;49.058;12.190;2023-03-23T03:50:38;5.82;;;3.38;;
23676;SDS011;31493;49.058;12.190;2023-03-23T03:53:07;7.80;;;3.72;;
23676;SDS011;31493;49.058;12.190;2023-03-23T03:55:35;6.93;;;3.97;;
23676;SDS011;31493;49.058;12.190;2023-03-23T03:58:04;5.03;;;3.58;;
23676;SDS011;31493;49.058;12.190;2023-03-23T04:00:31;6.05;;;4.35;;
23676;SDS011;31493;49.058;12.190;2023-03-23T04:02:58;7.57;;;4.72;;
23676;SDS011;31493;49.058;12.190;2023-03-23T04:05:25;6.65;;;4.30;;
23676;SDS011;31493;49.058;12.190;2023-03-23T04:07:54;6.20;;;4.15;;
23676;SDS011;31493;49.058;12.190;2023-03-23T04:10:29;7.38;;;4.68;;
23676;SDS011;31493;49.058;12.190;2023-03-23T04:12:56;8.73;;;4.97;;
23676;SDS011;31493;49.058;12.190;2023-03-23T04:15:24;9.27;;;4.90;;
23676;SDS011;31493;49.058;12.190;2023-03-23T04:17:51;6.97;;;5.13;;
23676;SDS011;31493;49.058;12.190;2023-03-23T04:20:18;9.02;;;5.20;;
23676;SDS011;31493;49.058;12.190;2023-03-23T04:22:45;6.55;;;5.00;;
23676;SDS011;31493;49.058;12.190;2023-03-23T04:25:15;8.15;;;5.35;;
23676;SDS011;31493;49.058;12.190;2023-03-23T04:27:47;7.30;;;5.18;;
23676;SDS011;31493;49.058;12.190;2023-03-23T04:30:18;10.13;;;5.10;;
23676;SDS011;31493;49.058;12.190;2023-03-23T04:32:47;8.93;;;5.03;;
23676;SDS011;31493;49.058;12.190;2023-03-23T04:35:17;9.32;;;4.50;;
23676;SDS011;31493;49.058;12.190;2023-03-23T04:37:46;9.85;;;5.15;;
23676;SDS011;31493;49.058;12.190;2023-03-23T04:40:14;10.97;;;5.23;;
23676;SDS011;31493;49.058;12.190;2023-03-23T04:42:43;8.85;;;5.47;;
23676;SDS011;31493;49.058;12.190;2023-03-23T04:45:14;6.70;;;5.07;;
23676;SDS011;31493;49.058;12.190;2023-03-23T04:47:47;9.13;;;4.75;;
23676;SDS011;31493;49.058;12.190;2023-03-23T04:50:19;11.43;;;5.60;;
23676;SDS011;31493;49.058;12.190;2023-03-23T04:52:49;8.60;;;5.70;;
23676;SDS011;31493;49.058;12.190;2023-03-23T04:55:18;7.30;;;5.18;;
23676;SDS011;31493;49.058;12.190;2023-03-23T04:57:46;8.40;;;5.07;;
23676;SDS011;31493;49.058;12.190;2023-03-23T05:00:15;9.63;;;5.93;;
23676;SDS011;31493;49.058;12.190;2023-03-23T05:02:43;7.85;;;5.00;;
23676;SDS011;31493;49.058;12.190;2023-03-23T05:05:12;7.05;;;5.22;;
23676;SDS011;31493;49.058;12.190;2023-03-23T05:07:41;8.52;;;5.28;;
23676;SDS011;31493;49.058;12.190;2023-03-23T05:10:09;7.13;;;4.60;;
23676;SDS011;31493;49.058;12.190;2023-03-23T05:12:37;7.82;;;5.13;;
23676;SDS011;31493;49.058;12.190;2023-03-23T05:15:05;9.07;;;4.72;;
23676;SDS011;31493;49.058;12.190;2023-03-23T05:17:35;10.07;;;5.97;;
23676;SDS011;31493;49.058;12.190;2023-03-23T05:20:03;10.50;;;5.60;;
23676;SDS011;31493;49.058;12.190;2023-03-23T05:22:34;8.57;;;5.50;;
23676;SDS011;31493;49.058;12.190;2023-03-23T05:25:02;8.68;;;6.10;;
23676;SDS011;31493;49.058;12.190;2023-03-23T05:27:29;9.32;;;6.18;;
23676;SDS011;31493;49.058;12.190;2023-03-23T05:29:58;9.52;;;6.03;;
23676;SDS011;31493;49.058;12.190;2023-03-23T05:32:26;10.67;;;6.57;;
23676;SDS011;31493;49.058;12.190;2023-03-23T05:34:56;9.57;;;6.90;;
23676;SDS011;31493;49.058;12.190;2023-03-23T05:37:24;9.13;;;7.00;;
23676;SDS011;31493;49.058;12.190;2023-03-23T05:39:52;12.90;;;7.37;;
23676;SDS011;31493;49.058;12.190;2023-03-23T05:42:21;13.30;;;6.85;;
23676;SDS011;31493;49.058;12.190;2023-03-23T05:44:48;11.88;;;6.80;;
23676;SDS011;31493;49.058;12.190;2023-03-23T05:47:16;10.40;;;7.05;;
23676;SDS011;31493;49.058;12.190;2023-03-23T05:49:43;11.43;;;6.60;;
23676;SDS011;31493;49.058;12.190;2023-03-23T05:52:11;11.35;;;6.28;;
23676;SDS011;31493;49.058;12.190;2023-03-23T05:54:39;7.15;;;5.57;;
23676;SDS011;31493;49.058;12.190;2023-03-23T05:57:06;10.55;;;6.32;;
23676;SDS011;31493;49.058;12.190;2023-03-23T05:59:34;10.10;;;5.68;;
23676;SDS011;31493;49.058;12.190;2023-03-23T06:02:01;13.07;;;5.43;;
23676;SDS011;31493;49.058;12.190;2023-03-23T06:04:29;9.10;;;5.32;;
23676;SDS011;31493;49.058;12.190;2023-03-23T06:06:59;8.55;;;5.47;;
23676;SDS011;31493;49.058;12.190;2023-03-23T06:09:29;8.05;;;5.40;;
23676;SDS011;31493;49.058;12.190;2023-03-23T06:11:56;8.45;;;5.90;;
23676;SDS011;31493;49.058;12.190;2023-03-23T06:14:23;9.15;;;5.70;;
23676;SDS011;31493;49.058;12.190;2023-03-23T06:16:51;9.60;;;5.68;;
23676;SDS011;31493;49.058;12.190;2023-03-23T06:19:18;8.73;;;5.40;;
23676;SDS011;31493;49.058;12.190;2023-03-23T06:21:45;8.50;;;5.28;;
23676;SDS011;31493;49.058;12.190;2023-03-23T06:24:12;7.45;;;5.32;;
23676;SDS011;31493;49.058;12.190;2023-03-23T06:26:41;7.95;;;4.70;;
23676;SDS011;31493;49.058;12.190;2023-03-23T06:29:09;7.32;;;5.00;;
23676;SDS011;31493;49.058;12.190;2023-03-23T06:31:37;7.68;;;5.15;;
23676;SDS011;31493;49.058;12.190;2023-03-23T06:34:07;7.82;;;4.40;;
23676;SDS011;31493;49.058;12.190;2023-03-23T06:36:35;7.93;;;5.10;;
23676;SDS011;31493;49.058;12.190;2023-03-23T06:39:03;6.53;;;4.35;;
23676;SDS011;31493;49.058;12.190;2023-03-23T06:41:31;5.75;;;3.30;;
23676;SDS011;31493;49.058;12.190;2023-03-23T06:44:01;5.07;;;3.20;;
23676;SDS011;31493;49.058;12.190;2023-03-23T06:46:28;4.47;;;2.92;;
23676;SDS011;31493;49.058;12.190;2023-03-23T06:48:55;5.18;;;3.60;;
23676;SDS011;31493;49.058;12.190;2023-03-23T06:51:22;5.65;;;3.10;;
23676;SDS011;31493;49.058;12.190;2023-03-23T06:53:49;6.63;;;3.22;;
23676;SDS011;31493;49.058;12.190;2023-03-23T06:56:17;5.65;;;2.78;;
23676;SDS011;31493;49.058;12.190;2023-03-23T06:58:44;7.15;;;3.85;;
23676;SDS011;31493;49.058;12.190;2023-03-23T07:01:13;6.70;;;2.97;;
23676;SDS011;31493;49.058;12.190;2023-03-23T07:03:41;6.18;;;3.30;;
23676;SDS011;31493;49.058;12.190;2023-03-23T07:06:09;4.80;;;3.30;;
23676;SDS011;31493;49.058;12.190;2023-03-23T07:08:37;6.68;;;3.45;;
23676;SDS011;31493;49.058;12.190;2023-03-23T07:11:04;5.07;;;3.50;;
23676;SDS011;31493;49.058;12.190;2023-03-23T07:13:32;4.78;;;3.28;;
23676;SDS011;31493;49.058;12.190;2023-03-23T07:15:59;5.03;;;3.15;;
23676;SDS011;31493;49.058;12.190;2023-03-23T07:18:27;6.50;;;4.47;;
23676;SDS011;31493;49.058;12.190;2023-03-23T07:20:54;7.07;;;4.38;;
23676;SDS011;31493;49.058;12.190;2023-03-23T07:23:22;5.75;;;3.28;;
23676;SDS011;31493;49.058;12.190;2023-03-23T07:25:49;6.32;;;3.80;;
23676;SDS011;31493;49.058;12.190;2023-03-23T07:28:16;7.75;;;4.20;;
23676;SDS011;31493;49.058;12.190;2023-03-23T07:30:44;6.38;;;3.28;;
23676;SDS011;31493;49.058;12.190;2023-03-23T07:33:11;6.25;;;4.20;;
23676;SDS011;31493;49.058;12.190;2023-03-23T07:35:39;6.75;;;4.35;;
23676;SDS011;31493;49.058;12.190;2023-03-23T07:38:07;8.07;;;4.10;;
23676;SDS011;31493;49.058;12.190;2023-03-23T07:40:34;5.95;;;3.65;;
23676;SDS011;31493;49.058;12.190;2023-03-23T07:43:02;6.15;;;4.07;;
23676;SDS011;31493;49.058;12.190;2023-03-23T07:45:30;5.28;;;3.97;;
23676;SDS011;31493;49.058;12.190;2023-03-23T07:47:57;7.15;;;3.95;;
23676;SDS011;31493;49.058;12.190;2023-03-23T07:50:24;6.97;;;3.75;;
23676;SDS011;31493;49.058;12.190;2023-03-23T07:52:54;5.63;;;4.15;;
23676;SDS011;31493;49.058;12.190;2023-03-23T07:55:23;7.82;;;4.82;;
23676;SDS011;31493;49.058;12.190;2023-03-23T07:57:51;5.93;;;4.60;;
23676;SDS011;31493;49.058;12.190;2023-03-23T08:00:20;5.75;;;3.47;;
23676;SDS011;31493;49.058;12.190;2023-03-23T08:02:50;5.90;;;4.35;;
23676;SDS011;31493;49.058;12.190;2023-03-23T08:05:19;8.60;;;4.35;;
23676;SDS011;31493;49.058;12.190;2023-03-23T08:07:47;7.88;;;4.18;;
23676;SDS011;31493;49.058;12.190;2023-03-23T08:10:16;8.85;;;5.07;;
23676;SDS011;31493;49.058;12.190;2023-03-23T08:12:44;7.55;;;4.60;;
23676;SDS011;31493;49.058;12.190;2023-03-23T08:15:12;7.55;;;5.13;;
23676;SDS011;31493;49.058;12.190;2023-03-23T08:17:41;7.07;;;4.70;;
23676;SDS011;31493;49.058;12.190;2023-03-23T08:20:09;5.43;;;3.72;;
23676;SDS011;31493;49.058;12.190;2023-03-23T08:22:39;6.80;;;4.10;;
23676;SDS011;31493;49.058;12.190;2023-03-23T08:25:09;8.00;;;4.70;;
23676;SDS011;31493;49.058;12.190;2023-03-23T08:27:38;9.27;;;4.70;;
23676;SDS011;31493;49.058;12.190;2023-03-23T08:30:09;5.05;;;4.07;;
23676;SDS011;31493;49.058;12.190;2023-03-23T08:35:05;10.82;;;4.65;;
23676;SDS011;31493;49.058;12.190;2023-03-23T08:40:00;9.82;;;4.95;;
23676;SDS011;31493;49.058;12.190;2023-03-23T08:42:32;7.50;;;4.80;;
23676;SDS011;31493;49.058;12.190;2023-03-23T08:45:01;9.23;;;5.63;;
23676;SDS011;31493;49.058;12.190;2023-03-23T08:47:29;7.65;;;4.90;;
23676;SDS011;31493;49.058;12.190;2023-03-23T08:49:56;9.98;;;5.00;;
23676;SDS011;31493;49.058;12.190;2023-03-23T08:52:23;9.88;;;5.68;;
23676;SDS011;31493;49.058;12.190;2023-03-23T08:54:50;8.52;;;5.40;;
23676;SDS011;31493;49.058;12.190;2023-03-23T08:57:17;10.88;;;5.47;;
23676;SDS011;31493;49.058;12.190;2023-03-23T08:59:44;8.73;;;5.43;;
23676;SDS011;31493;49.058;12.190;2023-03-23T09:02:13;7.03;;;5.18;;
23676;SDS011;31493;49.058;12.190;2023-03-23T09:04:40;11.25;;;5.93;;
23676;SDS011;31493;49.058;12.190;2023-03-23T09:07:08;11.57;;;5.20;;
23676;SDS011;31493;49.058;12.190;2023-03-23T09:09:36;7.35;;;5.18;;
23676;SDS011;31493;49.058;12.190;2023-03-23T09:12:04;7.57;;;5.10;;
23676;SDS011;31493;49.058;12.190;2023-03-23T09:14:32;10.63;;;5.47;;
23676;SDS011;31493;49.058;12.190;2023-03-23T09:16:59;7.45;;;5.05;;
23676;SDS011;31493;49.058;12.190;2023-03-23T09:19:28;8.35;;;4.93;;
23676;SDS011;31493;49.058;12.190;2023-03-23T09:21:55;5.82;;;4.40;;
23676;SDS011;31493;49.058;12.190;2023-03-23T09:24:22;9.18;;;5.13;;
23676;SDS011;31493;49.058;12.190;2023-03-23T09:26:49;7.82;;;4.80;;
23676;SDS011;31493;49.058;12.190;2023-03-23T09:29:16;8.65;;;5.65;;
23676;SDS011;31493;49.058;12.190;2023-03-23T09:31:44;7.45;;;4.93;;
23676;SDS011;31493;49.058;12.190;2023-03-23T09:34:12;9.50;;;4.90;;
23676;SDS011;31493;49.058;12.190;2023-03-23T09:36:42;6.57;;;4.90;;
23676;SDS011;31493;49.058;12.190;2023-03-23T09:41:41;7.82;;;4.80;;
23676;SDS011;31493;49.058;12.190;2023-03-23T09:44:22;7.30;;;4.68;;
23676;SDS011;31493;49.058;12.190;2023-03-23T09:46:56;6.65;;;4.82;;
23676;SDS011;31493;49.058;12.190;2023-03-23T09:49:29;10.60;;;4.78;;
23676;SDS011;31493;49.058;12.190;2023-03-23T09:52:03;9.73;;;5.03;;
23676;SDS011;31493;49.058;12.190;2023-03-23T09:54:34;8.25;;;5.22;;
23676;SDS011;31493;49.058;12.190;2023-03-23T09:57:03;7.18;;;4.80;;
23676;SDS011;31493;49.058;12.190;2023-03-23T09:59:39;7.85;;;4.85;;
23676;SDS011;31493;49.058;12.190;2023-03-23T10:02:14;8.88;;;4.63;;
23676;SDS011;31493;49.058;12.190;2023-03-23T10:04:44;9.43;;;5.18;;
23676;SDS011;31493;49.058;12.190;2023-03-23T10:07:14;8.45;;;5.30;;
23676;SDS011;31493;49.058;12.190;2023-03-23T10:09:44;6.70;;;4.90;;
23676;SDS011;31493;49.058;12.190;2023-03-23T10:12:16;8.43;;;5.55;;
23676;SDS011;31493;49.058;12.190;2023-03-23T10:14:54;7.90;;;5.57;;
23676;SDS011;31493;49.058;12.190;2023-03-23T10:17:28;8.93;;;5.35;;
23676;SDS011;31493;49.058;12.190;2023-03-23T10:20:03;10.20;;;5.68;;
23676;SDS011;31493;49.058;12.190;2023-03-23T10:22:47;8.82;;;5.47;;
23676;SDS011;31493;49.058;12.190;2023-03-23T10:25:19;8.93;;;5.53;;
23676;SDS011;31493;49.058;12.190;2023-03-23T10:27:51;9.88;;;5.57;;
23676;SDS011;31493;49.058;12.190;2023-03-23T10:30:27;8.32;;;5.40;;
23676;SDS011;31493;49.058;12.190;2023-03-23T10:32:58;6.85;;;5.28;;
23676;SDS011;31493;49.058;12.190;2023-03-23T10:35:30;7.80;;;5.47;;
23676;SDS011;31493;49.058;12.190;2023-03-23T10:38:04;12.82;;;5.55;;
23676;SDS011;31493;49.058;12.190;2023-03-23T10:40:43;10.80;;;5.50;;
23676;SDS011;31493;49.058;12.190;2023-03-23T10:43:14;11.82;;;5.20;;
23676;SDS011;31493;49.058;12.190;2023-03-23T10:45:42;9.30;;;5.15;;
23676;SDS011;31493;49.058;12.190;2023-03-23T10:48:14;7.88;;;5.30;;
23676;SDS011;31493;49.058;12.190;2023-03-23T10:50:44;13.45;;;5.35;;
23676;SDS011;31493;49.058;12.190;2023-03-23T10:53:16;9.00;;;5.72;;
23676;SDS011;31493;49.058;12.190;2023-03-23T10:55:46;6.32;;;4.82;;
23676;SDS011;31493;49.058;12.190;2023-03-23T10:58:22;10.40;;;5.28;;
23676;SDS011;31493;49.058;12.190;2023-03-23T11:00:50;8.75;;;5.70;;
23676;SDS011;31493;49.058;12.190;2023-03-23T11:03:25;7.63;;;5.30;;
23676;SDS011;31493;49.058;12.190;2023-03-23T11:06:00;8.25;;;5.43;;
23676;SDS011;31493;49.058;12.190;2023-03-23T11:08:32;9.75;;;5.05;;
23676;SDS011;31493;49.058;12.190;2023-03-23T11:11:07;9.73;;;4.95;;
23676;SDS011;31493;49.058;12.190;2023-03-23T11:13:38;8.20;;;5.05;;
23676;SDS011;31493;49.058;12.190;2023-03-23T11:16:09;7.40;;;5.30;;
23676;SDS011;31493;49.058;12.190;2023-03-23T11:18:37;7.95;;;5.20;;
23676;SDS011;31493;49.058;12.190;2023-03-23T11:23:36;11.75;;;4.72;;
23676;SDS011;31493;49.058;12.190;2023-03-23T11:26:09;8.60;;;5.07;;
23676;SDS011;31493;49.058;12.190;2023-03-23T11:28:44;7.78;;;5.30;;
23676;SDS011;31493;49.058;12.190;2023-03-23T11:31:15;10.60;;;5.35;;
23676;SDS011;31493;49.058;12.190;2023-03-23T11:33:47;8.43;;;5.35;;
23676;SDS011;31493;49.058;12.190;2023-03-23T11:36:20;7.25;;;5.55;;
23676;SDS011;31493;49.058;12.190;2023-03-23T11:38:53;7.72;;;4.88;;
23676;SDS011;31493;49.058;12.190;2023-03-23T11:41:31;7.18;;;4.93;;
23676;SDS011;31493;49.058;12.190;2023-03-23T11:44:02;9.93;;;5.60;;
23676;SDS011;31493;49.058;12.190;2023-03-23T11:46:38;7.00;;;4.60;;
23676;SDS011;31493;49.058;12.190;2023-03-23T11:49:13;8.00;;;5.30;;
23676;SDS011;31493;49.058;12.190;2023-03-23T11:51:48;6.03;;;4.78;;
23676;SDS011;31493;49.058;12.190;2023-03-23T11:54:21;6.32;;;3.92;;
23676;SDS011;31493;49.058;12.190;2023-03-23T11:56:53;3.78;;;2.17;;
23676;SDS011;31493;49.058;12.190;2023-03-23T11:59:26;3.65;;;1.63;;
23676;SDS011;31493;49.058;12.190;2023-03-23T12:01:56;2.03;;;1.50;;
23676;SDS011;31493;49.058;12.190;2023-03-23T12:04:32;2.97;;;1.60;;
23676;SDS011;31493;49.058;12.190;2023-03-23T12:07:10;2.53;;;1.50;;
23676;SDS011;31493;49.058;12.190;2023-03-23T12:09:49;4.30;;;1.52;;
23676;SDS011;31493;49.058;12.190;2023-03-23T12:12:26;2.00;;;1.60;;
23676;SDS011;31493;49.058;12.190;2023-03-23T12:15:05;3.10;;;1.60;;
23676;SDS011;31493;49.058;12.190;2023-03-23T12:17:42;2.28;;;1.30;;
23676;SDS011;31493;49.058;12.190;2023-03-23T12:20:20;3.58;;;1.70;;
23676;SDS011;31493;49.058;12.190;2023-03-23T12:23:00;4.97;;;1.48;;
23676;SDS011;31493;49.058;12.190;2023-03-23T12:28:47;2.15;;;1.50;;
23676;SDS011;31493;49.058;12.190;2023-03-23T12:31:27;3.10;;;1.70;;
23676;SDS011;31493;49.058;12.190;2023-03-23T12:34:04;3.33;;;1.67;;
23676;SDS011;31493;49.058;12.190;2023-03-23T12:36:41;2.88;;;1.50;;
23676;SDS011;31493;49.058;12.190;2023-03-23T12:39:30;2.60;;;1.70;;
23676;SDS011;31493;49.058;12.190;2023-03-23T12:42:13;3.38;;;1.60;;
23676;SDS011;31493;49.058;12.190;2023-03-23T12:44:49;2.75;;;1.48;;
23676;SDS011;31493;49.058;12.190;2023-03-23T12:47:29;4.05;;;1.95;;
23676;SDS011;31493;49.058;12.190;2023-03-23T12:50:03;2.10;;;1.70;;
23676;SDS011;31493;49.058;12.190;2023-03-23T12:52:36;5.25;;;1.90;;
23676;SDS011;31493;49.058;12.190;2023-03-23T12:55:13;3.45;;;1.58;;
23676;SDS011;31493;49.058;12.190;2023-03-23T12:57:49;2.75;;;1.60;;
23676;SDS011;31493;49.058;12.190;2023-03-23T13:00:25;2.28;;;1.50;;
23676;SDS011;31493;49.058;12.190;2023-03-23T13:02:57;6.95;;;2.08;;
23676;SDS011;31493;49.058;12.190;2023-03-23T13:05:36;2.50;;;1.58;;
23676;SDS011;31493;49.058;12.190;2023-03-23T13:08:10;2.78;;;1.60;;
23676;SDS011;31493;49.058;12.190;2023-03-23T13:10:42;2.40;;;1.88;;
23676;SDS011;31493;49.058;12.190;2023-03-23T13:13:16;3.13;;;2.00;;
23676;SDS011;31493;49.058;12.190;2023-03-23T13:15:53;4.45;;;2.00;;
23676;SDS011;31493;49.058;12.190;2023-03-23T13:18:30;3.55;;;2.05;;
23676;SDS011;31493;49.058;12.190;2023-03-23T13:21:06;4.15;;;1.77;;
23676;SDS011;31493;49.058;12.190;2023-03-23T13:23:41;3.88;;;1.83;;
23676;SDS011;31493;49.058;12.190;2023-03-23T13:26:12;3.28;;;1.95;;
23676;SDS011;31493;49.058;12.190;2023-03-23T13:28:50;4.97;;;2.20;;
23676;SDS011;31493;49.058;12.190;2023-03-23T13:31:23;5.97;;;2.00;;
23676;SDS011;31493;49.058;12.190;2023-03-23T13:33:59;2.75;;;1.58;;
23676;SDS011;31493;49.058;12.190;2023-03-23T13:36:30;4.10;;;1.85;;
23676;SDS011;31493;49.058;12.190;2023-03-23T13:39:01;7.95;;;1.90;;
23676;SDS011;31493;49.058;12.190;2023-03-23T13:41:33;2.72;;;1.50;;
23676;SDS011;31493;49.058;12.190;2023-03-23T13:44:18;5.10;;;2.10;;
23676;SDS011;31493;49.058;12.190;2023-03-23T13:46:54;3.75;;;1.80;;
23676;SDS011;31493;49.058;12.190;2023-03-23T13:49:23;3.05;;;1.90;;
23676;SDS011;31493;49.058;12.190;2023-03-23T13:51:58;2.85;;;1.52;;
23676;SDS011;31493;49.058;12.190;2023-03-23T13:54:32;3.83;;;1.80;;
23676;SDS011;31493;49.058;12.190;2023-03-23T13:57:21;5.28;;;2.25;;
23676;SDS011;31493;49.058;12.190;2023-03-23T13:59:57;2.88;;;1.85;;
23676;SDS011;31493;49.058;12.190;2023-03-23T14:02:33;3.00;;;1.77;;
23676;SDS011;31493;49.058;12.190;2023-03-23T14:07:50;3.42;;;1.92;;
23676;SDS011;31493;49.058;12.190;2023-03-23T14:10:25;2.72;;;1.80;;
23676;SDS011;31493;49.058;12.190;2023-03-23T14:12:58;1.60;;;1.30;;
23676;SDS011;31493;49.058;12.190;2023-03-23T14:15:29;3.95;;;1.48;;
23676;SDS011;31493;49.058;12.190;2023-03-23T14:17:58;2.30;;;1.50;;
23676;SDS011;31493;49.058;12.190;2023-03-23T14:20:30;1.90;;;1.23;;
23676;SDS011;31493;49.058;12.190;2023-03-23T14:23:00;1.80;;;1.40;;
23676;SDS011;31493;49.058;12.190;2023-03-23T14:25:28;1.73;;;1.30;;
23676;SDS011;31493;49.058;12.190;2023-03-23T14:27:57;1.88;;;1.10;;
23676;SDS011;31493;49.058;12.190;2023-03-23T14:30:25;2.47;;;1.30;;
23676;SDS011;31493;49.058;12.190;2023-03-23T14:33:03;3.40;;;1.40;;
23676;SDS011;31493;49.058;12.190;2023-03-23T14:35:34;4.38;;;1.38;;
23676;SDS011;31493;49.058;12.190;2023-03-23T14:38:04;3.45;;;1.70;;
23676;SDS011;31493;49.058;12.190;2023-03-23T14:40:31;4.13;;;1.40;;
23676;SDS011;31493;49.058;12.190;2023-03-23T14:43:00;2.15;;;1.17;;
23676;SDS011;31493;49.058;12.190;2023-03-23T14:45:28;1.80;;;1.30;;
23676;SDS011;31493;49.058;12.190;2023-03-23T14:47:57;2.47;;;1.25;;
23676;SDS011;31493;49.058;12.190;2023-03-23T14:50:27;4.10;;;1.50;;
23676;SDS011;31493;49.058;12.190;2023-03-23T14:52:56;2.97;;;1.40;;
23676;SDS011;31493;49.058;12.190;2023-03-23T14:55:26;3.90;;;1.48;;
23676;SDS011;31493;49.058;12.190;2023-03-23T14:58:05;4.60;;;1.58;;
23676;SDS011;31493;49.058;12.190;2023-03-23T15:00:34;2.78;;;1.33;;
23676;SDS011;31493;49.058;12.190;2023-03-23T15:03:07;6.47;;;1.40;;
23676;SDS011;31493;49.058;12.190;2023-03-23T15:05:41;3.22;;;1.40;;
23676;SDS011;31493;49.058;12.190;2023-03-23T15:08:13;3.15;;;1.38;;
23676;SDS011;31493;49.058;12.190;2023-03-23T15:10:51;2.28;;;1.27;;
23676;SDS011;31493;49.058;12.190;2023-03-23T15:13:20;3.65;;;1.38;;
23676;SDS011;31493;49.058;12.190;2023-03-23T15:15:47;3.33;;;1.50;;